Time;durP1;ratioP1;P1;durP2;ratioP2;P2;SDS_P1;SDS_P2;PMS_P1;PMS_P2;Temp;Humidity;BMP_temperature;BMP_pressure;BME280_temperature;BME280_humidity;BME280_pressure;Samples;Min_cycle;Max_cycle;Signal;HPM_P1;HPM_P2
2023/04/19 03:00:38;;;;;;;;;;;17.70;53.40;;;;;;5904019;22;46159;-60
2023/04/19 03:03:03;;;;;;;;;;;17.70;53.50;;;;;;4879802;28;45606;-58
2023/04/19 03:05:29;;;;;;;;;;;17.70;53.50;;;;;;4944229;28;46701;-61
2023/04/19 03:07:54;;;;;;;;;;;17.70;53.50;;;;;;4953856;28;45491;-59
2023/04/19 03:10:20;;;;;;;;;;;17.70;53.50;;;;;;4944351;28;45309;-60
2023/04/19 03:12:45;;;;;;;;;;;17.70;53.50;;;;;;4932686;28;45486;-60
2023/04/19 03:15:11;;;;;;;;;;;17.70;53.50;;;;;;4926634;28;45967;-61
2023/04/19 03:17:36;;;;;;;;;;;17.70;53.50;;;;;;4943429;28;44973;-58
2023/04/19 03:20:06;;;;;;;;;;;17.60;53.50;;;;;;4953151;28;44880;-61
2023/04/19 03:22:32;;;;;;;;;;;17.70;53.60;;;;;;4951879;28;45745;-60
2023/04/19 03:24:57;;;;;;;;;;;17.60;53.50;;;;;;4956844;28;46769;-60
2023/04/19 03:27:23;;;;;;;;;;;17.60;53.50;;;;;;4947906;28;45282;-60
2023/04/19 03:29:48;;;;;;;;;;;17.70;53.50;;;;;;4955136;28;45638;-60
2023/04/19 03:32:14;;;;;;;;;;;17.60;53.50;;;;;;4941075;28;45278;-59
2023/04/19 03:34:40;;;;;;;;;;;17.70;53.50;;;;;;4950659;28;45494;-61
2023/04/19 03:37:05;;;;;;;;;;;17.60;53.50;;;;;;4949454;28;45513;-60
2023/04/19 03:39:31;;;;;;;;;;;17.60;53.50;;;;;;4953050;28;45427;-59
2023/04/19 03:41:56;;;;;;;;;;;17.60;53.50;;;;;;4944616;28;45423;-60
2023/04/19 03:44:21;;;;;;;;;;;17.60;53.40;;;;;;4949831;28;45309;-60
2023/04/19 03:46:47;;;;;;;;;;;17.60;53.50;;;;;;4942444;28;45556;-60
2023/04/19 03:49:13;;;;;;;;;;;17.60;53.50;;;;;;4945880;28;45378;-61
2023/04/19 03:51:38;;;;;;;;;;;17.60;53.60;;;;;;4946168;28;45533;-60
2023/04/19 03:54:04;;;;;;;;;;;17.60;53.50;;;;;;4954177;28;46216;-60
2023/04/19 03:56:30;;;;;;;;;;;17.60;53.50;;;;;;4911153;28;45229;-60
2023/04/19 03:58:55;;;;;;;;;;;17.60;53.40;;;;;;4949347;28;44732;-60
2023/04/19 04:01:21;;;;;;;;;;;17.60;53.40;;;;;;4940852;28;45311;-60
2023/04/19 04:03:46;;;;;;;;;;;17.60;53.50;;;;;;4943416;28;46140;-59
2023/04/19 04:06:12;;;;;;;;;;;17.50;53.50;;;;;;4953040;28;45066;-60
2023/04/19 04:08:37;;;;;;;;;;;17.50;53.50;;;;;;4962024;28;45227;-60
2023/04/19 04:11:03;;;;;;;;;;;17.60;53.60;;;;;;4946363;28;45539;-59
2023/04/19 04:13:28;;;;;;;;;;;17.60;53.60;;;;;;4951915;28;46368;-65
2023/04/19 04:15:54;;;;;;;;;;;17.50;53.60;;;;;;4946923;28;45324;-58
2023/04/19 04:18:19;;;;;;;;;;;17.50;53.50;;;;;;4957367;28;45278;-60
2023/04/19 04:20:45;;;;;;;;;;;17.50;53.50;;;;;;4948731;28;45038;-58
2023/04/19 04:23:10;;;;;;;;;;;17.50;53.50;;;;;;4956665;28;46194;-58
2023/04/19 04:25:36;;;;;;;;;;;17.50;53.50;;;;;;4952496;28;45609;-60
2023/04/19 04:28:02;;;;;;;;;;;17.50;53.50;;;;;;4956315;28;45368;-59
2023/04/19 04:30:27;;;;;;;;;;;17.50;53.50;;;;;;4950074;28;45598;-60
2023/04/19 04:32:56;;;;;;;;;;;17.50;53.60;;;;;;4958485;28;46221;-59
2023/04/19 04:35:22;;;;;;;;;;;17.50;53.60;;;;;;4954876;28;45346;-58
2023/04/19 04:37:47;;;;;;;;;;;17.50;53.60;;;;;;4948339;28;45793;-60
2023/04/19 04:40:13;;;;;;;;;;;17.50;53.60;;;;;;4949640;28;45358;-62
2023/04/19 04:42:39;;;;;;;;;;;17.50;53.60;;;;;;4956666;28;46082;-59
2023/04/19 04:45:05;;;;;;;;;;;17.50;53.60;;;;;;4956472;28;44937;-63
2023/04/19 04:47:31;;;;;;;;;;;17.50;53.60;;;;;;4945649;28;44666;-61
2023/04/19 04:49:57;;;;;;;;;;;17.40;54.10;;;;;;4947394;28;45220;-57
2023/04/19 04:52:22;;;;;;;;;;;17.50;53.60;;;;;;4953839;28;46146;-58
2023/04/19 04:54:48;;;;;;;;;;;17.50;53.60;;;;;;4955991;28;45264;-58
2023/04/19 04:57:13;;;;;;;;;;;17.50;53.60;;;;;;4951081;28;45169;-60
2023/04/19 04:59:39;;;;;;;;;;;17.50;53.60;;;;;;4940418;28;46213;-60
2023/04/19 05:02:04;;;;;;;;;;;17.50;53.60;;;;;;4947303;28;46505;-61
2023/04/19 05:04:30;;;;;;;;;;;17.40;53.60;;;;;;4959076;28;45664;-58
2023/04/19 05:06:55;;;;;;;;;;;17.40;53.60;;;;;;4952416;28;45896;-59
2023/04/19 05:09:21;;;;;;;;;;;17.40;53.70;;;;;;4933533;28;45353;-61
2023/04/19 05:11:46;;;;;;;;;;;17.40;53.70;;;;;;4936147;28;45307;-58
2023/04/19 05:14:12;;;;;;;;;;;17.40;53.70;;;;;;4945190;28;45168;-60
2023/04/19 05:16:38;;;;;;;;;;;17.40;53.70;;;;;;4937395;28;45231;-60
2023/04/19 05:19:03;;;;;;;;;;;17.40;53.80;;;;;;4956920;28;45559;-58
2023/04/19 05:21:29;;;;;;;;;;;17.40;53.70;;;;;;4953538;28;46902;-59
2023/04/19 05:23:55;;;;;;;;;;;17.30;53.80;;;;;;4957472;28;45229;-59
2023/04/19 05:26:20;;;;;;;;;;;17.40;53.80;;;;;;4948526;28;45201;-59
2023/04/19 05:28:46;;;;;;;;;;;17.40;53.80;;;;;;4955168;28;45231;-59
2023/04/19 05:31:11;;;;;;;;;;;17.40;53.80;;;;;;4942184;28;45866;-62
2023/04/19 05:33:37;;;;;;;;;;;17.40;53.80;;;;;;4947980;28;44884;-60
2023/04/19 05:36:02;;;;;;;;;;;17.40;53.80;;;;;;4951619;28;45507;-60
2023/04/19 05:38:28;;;;;;;;;;;17.40;53.80;;;;;;4950461;28;45239;-60
2023/04/19 05:40:53;;;;;;;;;;;17.30;53.70;;;;;;4939521;28;45214;-59
2023/04/19 05:43:19;;;;;;;;;;;17.40;53.80;;;;;;4959372;28;44791;-57
2023/04/19 05:45:44;;;;;;;;;;;17.30;53.70;;;;;;4941448;28;45839;-59
2023/04/19 05:48:10;;;;;;;;;;;17.30;53.70;;;;;;4956716;28;45389;-58
2023/04/19 05:50:35;;;;;;;;;;;17.30;53.80;;;;;;4947275;28;45918;-56
2023/04/19 05:53:01;;;;;;;;;;;17.30;53.80;;;;;;4942751;28;45339;-59
2023/04/19 05:55:27;;;;;;;;;;;17.30;53.80;;;;;;4948874;28;45200;-60
2023/04/19 05:57:52;;;;;;;;;;;17.30;53.80;;;;;;4949589;28;47328;-60
2023/04/19 06:00:18;;;;;;;;;;;17.30;53.80;;;;;;4950659;28;45316;-59
2023/04/19 06:02:43;;;;;;;;;;;17.30;53.80;;;;;;4951717;28;45058;-59
2023/04/19 06:05:09;;;;;;;;;;;17.30;53.80;;;;;;4958835;28;45279;-60
2023/04/19 06:07:34;;;;;;;;;;;17.30;53.80;;;;;;4957301;28;45366;-60
2023/04/19 06:10:00;;;;;;;;;;;17.30;53.80;;;;;;4953815;28;46707;-59
2023/04/19 06:12:26;;;;;;;;;;;17.30;53.70;;;;;;4952168;28;44751;-58
2023/04/19 06:14:51;;;;;;;;;;;17.30;53.70;;;;;;4955051;28;45069;-59
2023/04/19 06:17:22;;;;;;;;;;;17.30;53.70;;;;;;4946153;28;45221;-59
2023/04/19 06:19:47;;;;;;;;;;;17.30;53.70;;;;;;4956594;28;46904;-58
2023/04/19 06:22:13;;;;;;;;;;;17.30;53.70;;;;;;4953138;28;45779;-58
2023/04/19 06:24:38;;;;;;;;;;;17.30;53.80;;;;;;4952842;28;44800;-59
2023/04/19 06:27:04;;;;;;;;;;;17.30;53.80;;;;;;4956800;28;45453;-59
2023/04/19 06:29:29;;;;;;;;;;;17.30;53.70;;;;;;4950675;28;47089;-59
2023/04/19 06:31:55;;;;;;;;;;;17.30;53.80;;;;;;4941967;28;45382;-59
2023/04/19 06:34:20;;;;;;;;;;;17.20;53.70;;;;;;4953364;28;45132;-58
2023/04/19 06:36:46;;;;;;;;;;;17.30;53.70;;;;;;4950363;28;45441;-59
2023/04/19 06:39:11;;;;;;;;;;;17.30;53.80;;;;;;4954131;28;45975;-60
2023/04/19 06:41:36;;;;;;;;;;;17.30;53.80;;;;;;4950391;28;45275;-59
2023/04/19 06:44:02;;;;;;;;;;;17.20;53.70;;;;;;4961271;28;45495;-60
2023/04/19 06:46:27;;;;;;;;;;;17.30;53.80;;;;;;4946452;28;45266;-60
2023/04/19 06:48:53;;;;;;;;;;;17.30;53.80;;;;;;4939596;28;46068;-60
2023/04/19 06:51:18;;;;;;;;;;;17.30;53.80;;;;;;4938452;28;45326;-60
2023/04/19 06:53:44;;;;;;;;;;;17.20;53.80;;;;;;4952580;28;44889;-59
2023/04/19 06:56:10;;;;;;;;;;;17.20;53.70;;;;;;4947518;28;45663;-60
2023/04/19 06:58:35;;;;;;;;;;;17.20;53.70;;;;;;4958345;28;45973;-60
2023/04/19 07:01:02;;;;;;;;;;;17.30;53.80;;;;;;4947555;28;46581;-60
2023/04/19 07:03:28;;;;;;;;;;;17.30;53.80;;;;;;4955708;28;45727;-58
2023/04/19 07:05:55;;;;;;;;;;;17.30;53.80;;;;;;4949423;28;45202;-62
2023/04/19 07:08:21;;;;;;;;;;;17.30;53.70;;;;;;4940700;28;45956;-60
2023/04/19 07:10:46;;;;;;;;;;;17.30;53.80;;;;;;4929806;28;45308;-58
2023/04/19 07:13:12;;;;;;;;;;;17.30;53.80;;;;;;4955585;28;45271;-60
2023/04/19 07:15:37;;;;;;;;;;;17.20;53.70;;;;;;4937395;28;45501;-61
2023/04/19 07:18:03;;;;;;;;;;;17.20;53.70;;;;;;4950865;28;46557;-61
2023/04/19 07:20:30;;;;;;;;;;;17.20;53.70;;;;;;4954580;28;44989;-61
2023/04/19 07:22:58;;;;;;;;;;;17.20;53.70;;;;;;4952832;28;45313;-59
2023/04/19 07:25:24;;;;;;;;;;;17.20;53.70;;;;;;4932569;28;45504;-61
2023/04/19 07:27:51;;;;;;;;;;;17.20;53.70;;;;;;4955124;28;46663;-60
2023/04/19 07:30:16;;;;;;;;;;;17.20;53.70;;;;;;4956887;28;45375;-57
2023/04/19 07:32:42;;;;;;;;;;;17.20;53.70;;;;;;4951583;28;45396;-61
2023/04/19 07:35:07;;;;;;;;;;;17.20;53.70;;;;;;4913673;28;44637;-60
2023/04/19 07:37:33;;;;;;;;;;;17.20;54.30;;;;;;4935875;28;45957;-59
2023/04/19 07:39:59;;;;;;;;;;;17.20;53.70;;;;;;4954245;28;44994;-60
2023/04/19 07:42:24;;;;;;;;;;;17.20;53.70;;;;;;4950681;28;45665;-60
2023/04/19 07:44:50;;;;;;;;;;;17.20;53.70;;;;;;4947859;28;44774;-60
2023/04/19 07:47:16;;;;;;;;;;;17.20;53.60;;;;;;4946598;28;46165;-60
2023/04/19 07:49:43;;;;;;;;;;;17.20;53.60;;;;;;4955347;28;45537;-59
2023/04/19 07:52:08;;;;;;;;;;;17.30;53.70;;;;;;4950215;28;45609;-60
2023/04/19 07:54:34;;;;;;;;;;;17.20;53.60;;;;;;4957703;28;45732;-61
2023/04/19 07:57:00;;;;;;;;;;;17.20;53.60;;;;;;4950171;28;46086;-60
2023/04/19 07:59:26;;;;;;;;;;;17.20;53.60;;;;;;4958208;28;45316;-60
2023/04/19 08:01:51;;;;;;;;;;;17.30;53.60;;;;;;4949029;28;45472;-60
2023/04/19 08:04:18;;;;;;;;;;;17.30;53.60;;;;;;4953949;28;45775;-60
2023/04/19 08:06:44;;;;;;;;;;;17.20;53.50;;;;;;4947583;28;44903;-59
2023/04/19 08:09:09;;;;;;;;;;;17.20;53.50;;;;;;4938468;28;45502;-60
2023/04/19 08:11:35;;;;;;;;;;;17.30;53.60;;;;;;4945055;28;45432;-58
2023/04/19 08:14:00;;;;;;;;;;;17.30;53.60;;;;;;4954936;28;45266;-61
2023/04/19 08:16:27;;;;;;;;;;;17.30;53.50;;;;;;4926949;28;46458;-59
2023/04/19 08:18:52;;;;;;;;;;;17.30;53.50;;;;;;4949841;28;45411;-60
2023/04/19 08:21:18;;;;;;;;;;;17.30;53.50;;;;;;4950051;28;45882;-59
2023/04/19 08:23:43;;;;;;;;;;;17.20;53.50;;;;;;4957236;28;44963;-59
2023/04/19 08:26:09;;;;;;;;;;;17.20;53.50;;;;;;4946221;28;45043;-58
2023/04/19 08:28:35;;;;;;;;;;;17.30;53.50;;;;;;4952623;28;45051;-59
2023/04/19 08:31:04;;;;;;;;;;;17.20;53.40;;;;;;4945356;28;45049;-59
2023/04/19 08:33:29;;;;;;;;;;;17.20;53.40;;;;;;4953059;28;45147;-60
2023/04/19 08:35:55;;;;;;;;;;;17.20;53.50;;;;;;4948058;28;46060;-59
2023/04/19 08:38:20;;;;;;;;;;;17.20;53.50;;;;;;4952372;28;45295;-60
2023/04/19 08:40:47;;;;;;;;;;;17.20;53.50;;;;;;4943853;28;45268;-57
2023/04/19 08:43:12;;;;;;;;;;;17.20;53.50;;;;;;4954560;28;45256;-59
2023/04/19 08:45:38;;;;;;;;;;;17.20;53.50;;;;;;4956435;28;46038;-59
2023/04/19 08:48:03;;;;;;;;;;;17.20;53.50;;;;;;4948928;28;45263;-59
2023/04/19 08:50:29;;;;;;;;;;;17.20;53.50;;;;;;4949295;28;45324;-59
2023/04/19 08:52:54;;;;;;;;;;;17.20;53.50;;;;;;4963654;28;45262;-58
2023/04/19 08:55:20;;;;;;;;;;;17.20;53.50;;;;;;4935035;28;46379;-58
2023/04/19 08:57:45;;;;;;;;;;;17.20;53.40;;;;;;4950031;28;45419;-61
2023/04/19 09:00:11;;;;;;;;;;;17.20;53.50;;;;;;4948096;28;45270;-60
2023/04/19 09:02:43;;;;;;;;;;;17.20;53.50;;;;;;4953880;28;45135;-57
2023/04/19 09:05:08;;;;;;;;;;;17.20;53.50;;;;;;4955095;28;45683;-61
2023/04/19 09:07:34;;;;;;;;;;;17.20;53.50;;;;;;4935685;28;44692;-56
2023/04/19 09:10:06;;;;;;;;;;;17.20;53.50;;;;;;4952755;28;46185;-58
2023/04/19 09:12:33;;;;;;;;;;;17.20;53.50;;;;;;4955264;28;45063;-59
2023/04/19 09:14:59;;;;;;;;;;;17.20;53.50;;;;;;4942091;28;46013;-57
2023/04/19 09:17:25;;;;;;;;;;;17.20;53.50;;;;;;4944983;28;45537;-63
2023/04/19 09:19:50;;;;;;;;;;;17.30;53.50;;;;;;4935848;28;45573;-61
2023/04/19 09:22:16;;;;;;;;;;;17.20;53.40;;;;;;4951770;28;45484;-60
2023/04/19 09:24:41;;;;;;;;;;;17.20;53.40;;;;;;4952570;28;46168;-60
2023/04/19 09:27:09;;;;;;;;;;;17.20;53.40;;;;;;4946836;28;45156;-59
2023/04/19 09:29:34;;;;;;;;;;;17.20;53.40;;;;;;4943630;28;44986;-60
2023/04/19 09:32:00;;;;;;;;;;;17.20;53.40;;;;;;4931084;28;45688;-60
2023/04/19 09:34:28;;;;;;;;;;;17.20;53.40;;;;;;4928309;28;46452;-58
2023/04/19 09:36:54;;;;;;;;;;;17.20;53.40;;;;;;4942880;28;45463;-59
2023/04/19 09:39:31;;;;;;;;;;;17.20;53.40;;;;;;4954434;28;46674;-59
2023/04/19 09:41:57;;;;;;;;;;;17.20;53.40;;;;;;4929766;28;46472;-60
2023/04/19 09:44:22;;;;;;;;;;;17.20;54.00;;;;;;4936016;28;45914;-58
2023/04/19 09:46:50;;;;;;;;;;;17.20;53.40;;;;;;4926286;28;45506;-60
2023/04/19 09:49:16;;;;;;;;;;;17.20;53.40;;;;;;4945530;28;45479;-57
2023/04/19 09:51:42;;;;;;;;;;;17.20;53.30;;;;;;4948938;28;45780;-57
2023/04/19 09:54:08;;;;;;;;;;;17.20;53.40;;;;;;4954585;28;46120;-58
2023/04/19 09:56:34;;;;;;;;;;;17.20;53.40;;;;;;4933963;28;44733;-60
2023/04/19 09:59:00;;;;;;;;;;;17.20;54.00;;;;;;4937163;28;45200;-60
2023/04/19 10:01:25;;;;;;;;;;;17.20;53.40;;;;;;4941634;28;45409;-60
2023/04/19 10:03:51;;;;;;;;;;;17.20;53.40;;;;;;4952111;28;46918;-60
2023/04/19 10:06:17;;;;;;;;;;;17.20;53.40;;;;;;4931282;28;45185;-59
2023/04/19 10:08:44;;;;;;;;;;;17.20;53.50;;;;;;4939328;28;45374;-58
2023/04/19 10:11:09;;;;;;;;;;;17.20;53.50;;;;;;4945083;28;46059;-59
2023/04/19 10:13:35;;;;;;;;;;;17.20;53.50;;;;;;4936735;28;45493;-59
2023/04/19 10:16:02;;;;;;;;;;;17.20;53.50;;;;;;4931296;28;45050;-60
2023/04/19 10:18:27;;;;;;;;;;;17.20;53.50;;;;;;4954037;28;45591;-59
2023/04/19 10:21:02;;;;;;;;;;;17.20;53.60;;;;;;4921798;28;45329;-61
2023/04/19 10:23:28;;;;;;;;;;;17.20;53.60;;;;;;4957970;28;46389;-60
2023/04/19 10:25:54;;;;;;;;;;;17.20;53.50;;;;;;4935184;28;45391;-59
2023/04/19 10:28:20;;;;;;;;;;;17.20;53.50;;;;;;4933670;28;45524;-60
2023/04/19 10:30:52;;;;;;;;;;;17.20;53.50;;;;;;4947347;28;45621;-59
2023/04/19 10:33:24;;;;;;;;;;;17.20;53.40;;;;;;4950087;28;46035;-58
2023/04/19 10:35:49;;;;;;;;;;;17.20;53.40;;;;;;4952156;28;45537;-59
2023/04/19 10:38:15;;;;;;;;;;;17.30;53.40;;;;;;4938266;28;46064;-59
2023/04/19 10:40:50;;;;;;;;;;;17.20;53.40;;;;;;4932857;28;45497;-57
2023/04/19 10:43:19;;;;;;;;;;;17.30;53.50;;;;;;4949906;28;44942;-59
2023/04/19 10:45:47;;;;;;;;;;;17.20;53.30;;;;;;4946353;28;45629;-60
2023/04/19 10:48:25;;;;;;;;;;;17.20;53.30;;;;;;4953307;28;45331;-59
2023/04/19 10:50:57;;;;;;;;;;;17.30;53.40;;;;;;4953689;28;45613;-61
2023/04/19 10:53:49;;;;;;;;;;;17.30;53.30;;;;;;4935133;28;45892;-62
2023/04/19 10:56:16;;;;;;;;;;;17.30;53.30;;;;;;4949246;28;45448;-61
2023/04/19 10:59:00;;;;;;;;;;;17.30;53.20;;;;;;4957288;28;44797;-60
2023/04/19 11:01:38;;;;;;;;;;;17.30;53.20;;;;;;4946494;28;45398;-59
2023/04/19 11:04:06;;;;;;;;;;;17.30;53.20;;;;;;4947756;28;46609;-62
2023/04/19 11:06:32;;;;;;;;;;;17.40;53.20;;;;;;4952470;28;45204;-59
2023/04/19 11:08:58;;;;;;;;;;;17.40;53.20;;;;;;4953782;28;45389;-60
2023/04/19 11:11:26;;;;;;;;;;;17.40;53.20;;;;;;4951432;28;46070;-59
2023/04/19 11:13:52;;;;;;;;;;;17.40;53.10;;;;;;4939769;28;45241;-59
2023/04/19 11:16:18;;;;;;;;;;;17.40;53.10;;;;;;4929671;28;45243;-60
2023/04/19 11:18:43;;;;;;;;;;;17.40;53.10;;;;;;4949583;28;45307;-59
2023/04/19 11:21:13;;;;;;;;;;;17.40;53.10;;;;;;4948447;28;45348;-61
2023/04/19 11:23:39;;;;;;;;;;;17.40;53.10;;;;;;4952610;28;46179;-61
2023/04/19 11:26:05;;;;;;;;;;;17.40;53.00;;;;;;4947759;28;45358;-61
2023/04/19 11:28:33;;;;;;;;;;;17.40;53.00;;;;;;4958064;28;45359;-60
2023/04/19 11:30:59;;;;;;;;;;;17.40;52.90;;;;;;4936777;28;45810;-62
2023/04/19 11:33:26;;;;;;;;;;;17.50;53.00;;;;;;4927307;28;46147;-62
2023/04/19 11:35:51;;;;;;;;;;;17.50;53.00;;;;;;4948238;28;45428;-60
2023/04/19 11:38:17;;;;;;;;;;;17.50;53.00;;;;;;4955680;28;45507;-60
2023/04/19 11:40:42;;;;;;;;;;;17.50;53.00;;;;;;4930852;28;45651;-60
2023/04/19 11:43:07;;;;;;;;;;;17.50;52.90;;;;;;4950364;28;46130;-60
2023/04/19 11:45:35;;;;;;;;;;;17.50;52.90;;;;;;4928778;28;45259;-61
2023/04/19 11:48:00;;;;;;;;;;;17.50;53.50;;;;;;4952464;28;45241;-61
2023/04/19 11:50:32;;;;;;;;;;;17.60;52.90;;;;;;4949444;28;45128;-60
2023/04/19 11:52:58;;;;;;;;;;;17.60;52.90;;;;;;4919344;28;47003;-61
2023/04/19 11:55:23;;;;;;;;;;;17.60;52.90;;;;;;4948564;28;45454;-61
2023/04/19 11:57:49;;;;;;;;;;;17.60;52.90;;;;;;4956341;28;45332;-62
2023/04/19 12:00:15;;;;;;;;;;;17.60;52.90;;;;;;4948645;28;45824;-62
2023/04/19 12:02:42;;;;;;;;;;;17.60;52.80;;;;;;4947192;28;46003;-60
2023/04/19 12:05:08;;;;;;;;;;;17.60;52.80;;;;;;4937055;28;45367;-62
2023/04/19 12:07:34;;;;;;;;;;;17.60;52.80;;;;;;4952789;28;45176;-61
2023/04/19 12:10:08;;;;;;;;;;;17.60;52.80;;;;;;4933165;28;45465;-61
2023/04/19 12:12:34;;;;;;;;;;;17.60;52.70;;;;;;4912433;28;46268;-60
2023/04/19 12:14:59;;;;;;;;;;;17.60;52.80;;;;;;4952944;28;45134;-61
2023/04/19 12:17:25;;;;;;;;;;;17.60;52.80;;;;;;4945098;28;45433;-62
2023/04/19 12:19:51;;;;;;;;;;;17.60;52.80;;;;;;4952846;28;45515;-62
2023/04/19 12:22:19;;;;;;;;;;;17.60;52.70;;;;;;4946704;28;46007;-61
2023/04/19 12:24:44;;;;;;;;;;;17.60;52.80;;;;;;4939757;28;45688;-61
2023/04/19 12:27:10;;;;;;;;;;;17.60;52.70;;;;;;4946256;28;45624;-61
2023/04/19 12:29:36;;;;;;;;;;;17.70;52.70;;;;;;4924163;28;46639;-61
2023/04/19 12:32:01;;;;;;;;;;;17.70;52.80;;;;;;4941045;28;46516;-61
2023/04/19 12:34:27;;;;;;;;;;;17.70;52.70;;;;;;4941443;28;45583;-61
2023/04/19 12:36:52;;;;;;;;;;;17.70;52.70;;;;;;4948047;28;45081;-60
2023/04/19 12:39:18;;;;;;;;;;;17.70;52.70;;;;;;4950453;28;45351;-62
2023/04/19 12:41:43;;;;;;;;;;;17.70;52.70;;;;;;4943675;28;46233;-62
2023/04/19 12:44:09;;;;;;;;;;;17.70;52.80;;;;;;4953458;28;44904;-61
2023/04/19 12:46:35;;;;;;;;;;;17.70;52.70;;;;;;4946048;28;44916;-61
2023/04/19 12:49:00;;;;;;;;;;;17.70;52.70;;;;;;4943331;28;44710;-59
2023/04/19 12:51:26;;;;;;;;;;;17.70;52.90;;;;;;4941554;28;46109;-61
2023/04/19 12:53:52;;;;;;;;;;;17.70;52.80;;;;;;4949606;28;44977;-61
2023/04/19 12:56:18;;;;;;;;;;;17.70;52.80;;;;;;4946613;28;45063;-61
2023/04/19 12:58:43;;;;;;;;;;;17.70;52.80;;;;;;4943797;28;46075;-62
2023/04/19 13:01:09;;;;;;;;;;;17.70;52.70;;;;;;4936691;28;47068;-61
2023/04/19 13:03:36;;;;;;;;;;;17.70;52.80;;;;;;4948170;28;45119;-60
2023/04/19 13:06:02;;;;;;;;;;;17.70;52.80;;;;;;4926590;28;45307;-61
2023/04/19 13:08:27;;;;;;;;;;;17.80;52.80;;;;;;4946095;28;45470;-61
2023/04/19 13:10:58;;;;;;;;;;;17.70;52.70;;;;;;4943306;28;45960;-60
2023/04/19 13:13:24;;;;;;;;;;;17.80;52.70;;;;;;4948838;28;45206;-60
2023/04/19 13:15:50;;;;;;;;;;;17.80;52.30;;;;;;4942721;28;45771;-60
2023/04/19 13:18:16;;;;;;;;;;;17.80;52.70;;;;;;4948251;28;45389;-63
2023/04/19 13:20:41;;;;;;;;;;;17.80;52.70;;;;;;4943339;28;45452;-60
2023/04/19 13:23:07;;;;;;;;;;;17.80;52.70;;;;;;4949258;28;45033;-61
2023/04/19 13:25:32;;;;;;;;;;;17.80;52.60;;;;;;4947144;28;44967;-60
2023/04/19 13:27:58;;;;;;;;;;;17.80;52.60;;;;;;4950649;28;45357;-62
2023/04/19 13:30:24;;;;;;;;;;;17.80;52.60;;;;;;4943611;28;45887;-60
2023/04/19 13:32:49;;;;;;;;;;;17.80;52.70;;;;;;4928371;28;46464;-61
2023/04/19 13:35:15;;;;;;;;;;;17.80;52.60;;;;;;4943809;28;45208;-61
2023/04/19 13:37:43;;;;;;;;;;;17.90;52.60;;;;;;4929472;28;45216;-61
2023/04/19 13:40:09;;;;;;;;;;;17.80;52.60;;;;;;4945914;28;45906;-62
2023/04/19 13:42:34;;;;;;;;;;;17.90;52.70;;;;;;4940126;28;45471;-59
2023/04/19 13:45:00;;;;;;;;;;;17.90;52.70;;;;;;4949655;28;45136;-60
2023/04/19 13:47:25;;;;;;;;;;;17.90;52.60;;;;;;4942793;28;46409;-61
2023/04/19 13:49:51;;;;;;;;;;;17.90;52.60;;;;;;4947142;28;46384;-60
2023/04/19 13:52:19;;;;;;;;;;;17.90;52.60;;;;;;4943203;28;45688;-61
2023/04/19 13:54:45;;;;;;;;;;;17.90;52.60;;;;;;4953847;28;45755;-58
2023/04/19 13:57:11;;;;;;;;;;;17.90;52.60;;;;;;4950494;28;45475;-61
2023/04/19 13:59:36;;;;;;;;;;;17.90;52.60;;;;;;4948728;28;46041;-62
2023/04/19 14:02:02;;;;;;;;;;;17.90;52.50;;;;;;4942801;28;45892;-59
2023/04/19 14:04:28;;;;;;;;;;;17.90;52.60;;;;;;4952263;28;45769;-59
2023/04/19 14:06:53;;;;;;;;;;;17.90;52.60;;;;;;4949820;28;45537;-60
2023/04/19 14:09:19;;;;;;;;;;;17.90;52.50;;;;;;4951041;28;45705;-60
2023/04/19 14:11:44;;;;;;;;;;;17.90;52.50;;;;;;4925122;28;45406;-61
2023/04/19 14:14:10;;;;;;;;;;;17.90;52.40;;;;;;4955232;28;44895;-61
2023/04/19 14:16:35;;;;;;;;;;;17.90;52.40;;;;;;4947383;28;45602;-60
2023/04/19 14:19:01;;;;;;;;;;;17.90;52.40;;;;;;4934099;28;46808;-61
2023/04/19 14:21:27;;;;;;;;;;;17.90;52.40;;;;;;4949915;28;45314;-60
2023/04/19 14:23:52;;;;;;;;;;;17.90;52.30;;;;;;4930598;28;45804;-62
2023/04/19 14:26:18;;;;;;;;;;;17.90;52.30;;;;;;4946320;28;45941;-62
2023/04/19 14:28:43;;;;;;;;;;;17.90;52.30;;;;;;4955098;28;46268;-61
2023/04/19 14:31:09;;;;;;;;;;;17.90;52.30;;;;;;4945447;28;45188;-60
2023/04/19 14:33:35;;;;;;;;;;;17.90;52.30;;;;;;4949411;28;45342;-60
2023/04/19 14:36:00;;;;;;;;;;;17.90;52.20;;;;;;4943330;28;45634;-62
2023/04/19 14:38:26;;;;;;;;;;;18.00;52.30;;;;;;4949350;28;46821;-60
2023/04/19 14:40:51;;;;;;;;;;;18.00;52.20;;;;;;4946309;28;45443;-61
2023/04/19 14:43:17;;;;;;;;;;;17.90;52.20;;;;;;4949579;28;45831;-61
2023/04/19 14:45:42;;;;;;;;;;;18.00;52.20;;;;;;4939967;28;45228;-61
2023/04/19 14:48:08;;;;;;;;;;;18.00;52.20;;;;;;4943800;28;45968;-62
2023/04/19 14:50:33;;;;;;;;;;;18.00;52.20;;;;;;4943370;28;46108;-60
2023/04/19 14:52:59;;;;;;;;;;;18.00;52.20;;;;;;4950425;28;45758;-59
2023/04/19 14:55:26;;;;;;;;;;;18.00;52.20;;;;;;4940967;28;46212;-61
2023/04/19 14:57:51;;;;;;;;;;;18.00;52.20;;;;;;4929821;28;46380;-60
2023/04/19 15:00:17;;;;;;;;;;;17.90;52.20;;;;;;4940248;28;45358;-62
2023/04/19 15:02:42;;;;;;;;;;;18.00;52.70;;;;;;4942085;28;46244;-60
2023/04/19 15:05:08;;;;;;;;;;;17.90;52.00;;;;;;4939752;28;46381;-60
2023/04/19 15:07:34;;;;;;;;;;;17.90;52.00;;;;;;4943709;28;45230;-61
2023/04/19 15:09:59;;;;;;;;;;;18.00;51.90;;;;;;4947981;28;45746;-60
2023/04/19 15:12:24;;;;;;;;;;;18.00;51.80;;;;;;4942744;28;45736;-60
2023/04/19 15:14:50;;;;;;;;;;;18.00;51.90;;;;;;4950111;28;45650;-61
2023/04/19 15:17:16;;;;;;;;;;;18.00;51.80;;;;;;4940495;28;45834;-61
2023/04/19 15:19:41;;;;;;;;;;;18.00;51.90;;;;;;4947401;28;45292;-59
2023/04/19 15:22:07;;;;;;;;;;;18.00;51.90;;;;;;4942112;28;45618;-61
2023/04/19 15:24:33;;;;;;;;;;;18.00;52.00;;;;;;4947339;28;44901;-60
2023/04/19 15:26:59;;;;;;;;;;;18.00;52.00;;;;;;4944259;28;46080;-61
2023/04/19 15:29:24;;;;;;;;;;;18.00;51.90;;;;;;4949343;28;45754;-61
2023/04/19 15:31:50;;;;;;;;;;;18.00;51.80;;;;;;4938348;28;45578;-61
2023/04/19 15:34:15;;;;;;;;;;;18.00;51.70;;;;;;4941071;28;45710;-63
2023/04/19 15:36:41;;;;;;;;;;;18.00;51.70;;;;;;4924482;28;45645;-60
2023/04/19 15:39:06;;;;;;;;;;;18.00;51.80;;;;;;4948216;28;45626;-61
2023/04/19 15:41:32;;;;;;;;;;;18.00;51.70;;;;;;4943930;28;46137;-60
2023/04/19 15:43:57;;;;;;;;;;;18.00;51.70;;;;;;4948281;28;45394;-62
2023/04/19 15:46:23;;;;;;;;;;;18.00;51.80;;;;;;4930336;28;51126;-60
2023/04/19 15:48:49;;;;;;;;;;;18.00;51.60;;;;;;4948774;28;45631;-62
2023/04/19 15:51:14;;;;;;;;;;;18.00;51.50;;;;;;4943714;28;45698;-62
2023/04/19 15:53:40;;;;;;;;;;;18.00;51.50;;;;;;4946143;28;45657;-61
2023/04/19 15:56:06;;;;;;;;;;;18.00;51.50;;;;;;4926362;28;45315;-61
2023/04/19 15:58:31;;;;;;;;;;;18.00;51.50;;;;;;4947963;28;45825;-62
2023/04/19 16:00:57;;;;;;;;;;;18.00;51.50;;;;;;4932718;28;45683;-62
2023/04/19 16:03:22;;;;;;;;;;;18.00;51.50;;;;;;4923789;28;45445;-61
2023/04/19 16:05:50;;;;;;;;;;;18.00;51.50;;;;;;4921861;28;46166;-61
2023/04/19 16:08:18;;;;;;;;;;;18.00;51.40;;;;;;4927926;28;45693;-60
2023/04/19 16:10:44;;;;;;;;;;;18.00;51.50;;;;;;4924445;28;45439;-60
2023/04/19 16:13:12;;;;;;;;;;;18.00;51.30;;;;;;4909293;28;46870;-62
2023/04/19 16:15:38;;;;;;;;;;;18.00;51.40;;;;;;4919184;28;45612;-61
2023/04/19 16:18:03;;;;;;;;;;;18.00;51.40;;;;;;4927058;28;45353;-62
2023/04/19 16:20:29;;;;;;;;;;;18.00;51.40;;;;;;4923734;28;46016;-60
2023/04/19 16:22:54;;;;;;;;;;;18.00;51.40;;;;;;4928034;28;45032;-62
2023/04/19 16:25:20;;;;;;;;;;;18.00;51.30;;;;;;4921345;28;47213;-61
2023/04/19 16:27:45;;;;;;;;;;;18.00;51.20;;;;;;4922154;28;50378;-61
2023/04/19 16:30:11;;;;;;;;;;;18.00;51.20;;;;;;4918860;28;45335;-62
2023/04/19 16:32:37;;;;;;;;;;;18.00;51.10;;;;;;4925073;28;45635;-61
2023/04/19 16:35:03;;;;;;;;;;;18.00;51.10;;;;;;4927719;28;45112;-63
2023/04/19 16:37:28;;;;;;;;;;;18.00;51.00;;;;;;4923399;28;45396;-60
2023/04/19 16:39:54;;;;;;;;;;;18.00;51.10;;;;;;4928114;28;45319;-60
2023/04/19 16:42:20;;;;;;;;;;;18.00;51.10;;;;;;4922901;28;45337;-62
2023/04/19 16:44:45;;;;;;;;;;;18.00;51.10;;;;;;4908141;28;45980;-61
2023/04/19 16:47:11;;;;;;;;;;;18.00;51.20;;;;;;4918676;28;45392;-63
2023/04/19 16:49:36;;;;;;;;;;;18.00;51.20;;;;;;4926257;28;45314;-62
2023/04/19 16:52:02;;;;;;;;;;;17.90;51.10;;;;;;4924343;28;45203;-60
2023/04/19 16:54:27;;;;;;;;;;;18.00;51.20;;;;;;4927002;28;44983;-58
2023/04/19 16:56:52;;;;;;;;;;;17.90;51.10;;;;;;4923753;28;45424;-60
2023/04/19 16:59:18;;;;;;;;;;;17.90;51.00;;;;;;4928023;28;45451;-62
2023/04/19 17:01:44;;;;;;;;;;;17.90;51.10;;;;;;4930607;28;45288;-60
2023/04/19 17:04:09;;;;;;;;;;;17.90;51.10;;;;;;4946751;28;45886;-62
2023/04/19 17:06:35;;;;;;;;;;;17.90;51.00;;;;;;4924584;28;45790;-60
2023/04/19 17:09:00;;;;;;;;;;;17.90;51.10;;;;;;4947784;28;45039;-61